createdAt,value
2018-08-24T00:00:38.728Z,100616.06
2018-08-24T00:03:08.509Z,100617.56
2018-08-24T00:05:38.642Z,100610.00
2018-08-24T00:08:08.125Z,100607.86
2018-08-24T00:10:38.973Z,100617.50
2018-08-24T00:13:09.402Z,100623.86
2018-08-24T00:15:40.239Z,100624.34
2018-08-24T00:18:10.629Z,100626.91
2018-08-24T00:20:41.083Z,100619.09
2018-08-24T00:23:11.723Z,100612.95
2018-08-24T00:28:33.335Z,100607.09
2018-08-24T00:31:03.783Z,100608.45
2018-08-24T00:33:34.524Z,100599.95
2018-08-24T00:36:05.136Z,100592.66
2018-08-24T00:38:35.831Z,100595.88
2018-08-24T00:41:05.194Z,100601.77
2018-08-24T00:43:34.914Z,100601.55
2018-08-24T00:46:05.251Z,100587.06
2018-08-24T00:48:34.852Z,100584.75
2018-08-24T00:51:04.597Z,100582.86
2018-08-24T00:53:34.781Z,100583.93
2018-08-24T00:56:04.580Z,100589.04
2018-08-24T00:58:34.854Z,100586.85
2018-08-24T01:01:10.017Z,100590.30
2018-08-24T01:03:40.301Z,100583.42
2018-08-24T01:06:09.998Z,100585.72
2018-08-24T01:08:40.477Z,100580.22
2018-08-24T01:11:10.290Z,100584.88
2018-08-24T01:13:39.975Z,100580.63
2018-08-24T01:16:10.031Z,100579.48
2018-08-24T01:18:44.397Z,100580.73
2018-08-24T01:21:14.501Z,100580.83
2018-08-24T01:23:44.244Z,100586.23
2018-08-24T01:26:14.109Z,100575.84
2018-08-24T01:28:45.161Z,100532.91
2018-08-24T01:31:14.958Z,100575.70
2018-08-24T01:33:47.270Z,100577.81
2018-08-24T01:36:17.450Z,100578.20
2018-08-24T01:38:50.720Z,100567.80
2018-08-24T01:41:20.170Z,100564.58
2018-08-24T01:43:49.466Z,100565.52
2018-08-24T01:46:20.502Z,100572.78
2018-08-24T01:48:50.386Z,100568.20
2018-08-24T01:51:19.543Z,100571.75
2018-08-24T01:53:48.838Z,100573.21
2018-08-24T01:56:18.943Z,100572.18
2018-08-24T01:58:48.590Z,100577.08
2018-08-24T02:01:18.260Z,100579.95
2018-08-24T02:03:50.135Z,100570.09
2018-08-24T02:06:19.632Z,100580.78
2018-08-24T02:08:48.964Z,100577.98
2018-08-24T02:11:23.755Z,100570.58
2018-08-24T02:13:58.098Z,100578.38
2018-08-24T02:16:33.291Z,100575.32
2018-08-24T02:19:08.230Z,100574.12
2018-08-24T02:21:43.838Z,100575.25
2018-08-24T02:24:13.824Z,100581.20
2018-08-24T02:26:44.775Z,100577.28
2018-08-24T02:29:14.140Z,100573.94
2018-08-24T02:31:51.182Z,100504.23
2018-08-24T02:34:21.074Z,100574.35
2018-08-24T02:36:50.626Z,100575.61
2018-08-24T02:39:20.432Z,100571.55
2018-08-24T02:41:49.927Z,100564.92
2018-08-24T02:44:19.934Z,100572.33
2018-08-24T02:46:49.645Z,100564.73
2018-08-24T02:49:19.141Z,100564.53
2018-08-24T02:51:48.608Z,100565.98
2018-08-24T02:54:18.346Z,100564.95
2018-08-24T02:56:47.884Z,100564.77
2018-08-24T02:59:17.502Z,100560.48
2018-08-24T03:01:48.348Z,100560.38
2018-08-24T03:04:17.886Z,100563.58
2018-08-24T03:06:48.119Z,100505.52
2018-08-24T03:09:17.834Z,100559.39
2018-08-24T03:11:49.060Z,100570.84
2018-08-24T03:14:18.561Z,100569.20
2018-08-24T03:16:53.112Z,100561.56
2018-08-24T03:19:23.148Z,100567.48
2018-08-24T03:21:53.633Z,100572.45
2018-08-24T03:24:23.073Z,100579.96
2018-08-24T03:26:52.357Z,100574.09
2018-08-24T03:29:21.972Z,100573.72
2018-08-24T03:31:51.496Z,100568.14
2018-08-24T03:34:20.732Z,100567.84
2018-08-24T03:36:49.930Z,100577.14
2018-08-24T03:39:19.139Z,100581.52
2018-08-24T03:41:48.910Z,100583.16
2018-08-24T03:44:18.355Z,100584.32
2018-08-24T03:46:48.368Z,100585.05
2018-08-24T03:49:17.898Z,100588.98
2018-08-24T03:51:47.350Z,100592.02
2018-08-24T03:54:23.166Z,100589.19
2018-08-24T03:56:56.606Z,100587.25
2018-08-24T03:59:26.318Z,100592.36
2018-08-24T04:01:57.354Z,100599.02
2018-08-24T04:04:26.998Z,100598.03
2018-08-24T04:06:56.226Z,100601.95
2018-08-24T04:09:25.513Z,100599.01
2018-08-24T04:11:54.792Z,100597.13
2018-08-24T04:14:23.936Z,100599.83
2018-08-24T04:17:01.325Z,100598.77
2018-08-24T04:19:31.145Z,100603.99
2018-08-24T04:22:00.609Z,100598.05
2018-08-24T04:24:31.025Z,100594.33
2018-08-24T04:27:00.577Z,100600.75
2018-08-24T04:29:30.737Z,100597.61
2018-08-24T04:32:01.365Z,100601.55
2018-08-24T04:34:31.260Z,100603.94
2018-08-24T04:37:00.802Z,100602.91
2018-08-24T04:39:30.410Z,100612.03
2018-08-24T04:44:42.027Z,100614.25
2018-08-24T04:47:24.045Z,100610.20
2018-08-24T04:50:05.976Z,100613.80
2018-08-24T04:52:38.657Z,100611.77
2018-08-24T04:55:09.035Z,100609.31
2018-08-24T04:57:40.151Z,100603.91
2018-08-24T05:00:14.193Z,100604.22
2018-08-24T05:02:43.921Z,100558.02
2018-08-24T05:05:18.582Z,100608.19
2018-08-24T05:07:48.869Z,100608.22
2018-08-24T05:10:18.248Z,100613.76
2018-08-24T05:12:47.951Z,100614.27
2018-08-24T05:15:20.299Z,100622.05
2018-08-24T05:17:52.492Z,100624.05
2018-08-24T05:20:21.897Z,100628.58
2018-08-24T05:22:53.485Z,100619.88
2018-08-24T05:25:24.312Z,100625.18
2018-08-24T05:27:55.698Z,100620.91
2018-08-24T05:30:28.472Z,100623.51
2018-08-24T05:32:57.983Z,100630.20
2018-08-24T05:35:27.448Z,100626.31
2018-08-24T05:37:57.587Z,100626.16
2018-08-24T05:40:34.156Z,100628.39
2018-08-24T05:43:06.280Z,100635.61
2018-08-24T05:45:39.251Z,100638.30
2018-08-24T05:48:11.115Z,100650.95
2018-08-24T05:50:45.783Z,100649.22
2018-08-24T05:53:16.442Z,100644.98
2018-08-24T05:55:46.571Z,100646.89
2018-08-24T05:58:16.094Z,100654.95
2018-08-24T06:00:46.537Z,100651.92
2018-08-24T06:03:16.407Z,100645.09
2018-08-24T06:05:54.027Z,100655.60
2018-08-24T06:08:27.606Z,100657.27
2018-08-24T06:10:57.342Z,100650.59
2018-08-24T06:13:28.291Z,100656.48
2018-08-24T06:16:02.463Z,100645.47
2018-08-24T06:18:32.005Z,100650.49
2018-08-24T06:21:02.122Z,100642.66
2018-08-24T06:23:31.647Z,100648.73
2018-08-24T06:26:01.821Z,100653.07
2018-08-24T06:28:32.095Z,100658.05
2018-08-24T06:31:08.650Z,100660.06
2018-08-24T06:33:38.443Z,100657.25
2018-08-24T06:36:19.206Z,100663.08
2018-08-24T06:38:50.172Z,100360.02
2018-08-24T06:41:22.291Z,100660.02
2018-08-24T06:43:52.019Z,100674.34
2018-08-24T06:46:25.915Z,100676.19
2018-08-24T06:48:55.947Z,100682.10
2018-08-24T06:51:26.132Z,100680.34
2018-08-24T06:53:55.874Z,100691.88
2018-08-24T06:56:27.571Z,100690.27
2018-08-24T06:59:01.156Z,100690.16
2018-08-24T07:01:36.395Z,100681.13
2018-08-24T07:04:06.987Z,100687.97
2018-08-24T07:06:38.420Z,100688.02
2018-08-24T07:09:16.240Z,100691.91
2018-08-24T07:11:45.542Z,100697.12
2018-08-24T07:14:26.796Z,100691.63
2018-08-24T07:17:04.492Z,100694.89
2018-08-24T07:19:35.596Z,100695.87
2018-08-24T07:22:06.639Z,100701.09
2018-08-24T07:27:17.898Z,100703.12
2018-08-24T07:29:47.510Z,100701.36
2018-08-24T07:32:19.511Z,100702.39
2018-08-24T07:34:49.017Z,100699.17
2018-08-24T07:37:19.438Z,100710.98
2018-08-24T07:39:49.026Z,100716.77
2018-08-24T07:42:18.543Z,100718.64
2018-08-24T07:44:57.612Z,100717.66
2018-08-24T07:47:28.161Z,100721.02
2018-08-24T07:49:57.574Z,100728.56
2018-08-24T07:52:27.010Z,100726.23
2018-08-24T07:54:57.577Z,100731.98
2018-08-24T07:57:29.329Z,100736.36
2018-08-24T07:59:59.724Z,100735.80
2018-08-24T08:02:36.221Z,100736.39
2018-08-24T08:05:09.427Z,100664.56
2018-08-24T08:07:40.480Z,100729.77
2018-08-24T08:10:13.227Z,100733.02
2018-08-24T08:12:44.856Z,100736.28
2018-08-24T08:15:24.763Z,100742.98
2018-08-24T08:17:54.646Z,100469.18
2018-08-24T08:20:25.636Z,100752.13
2018-08-24T08:23:04.772Z,100746.50
2018-08-24T08:25:44.634Z,100754.61
2018-08-24T08:28:15.584Z,100761.20
2018-08-24T08:30:45.415Z,100755.83
2018-08-24T08:33:14.875Z,100734.59
2018-08-24T08:35:44.767Z,100773.34
2018-08-24T08:38:14.453Z,100776.10
2018-08-24T08:40:44.208Z,100781.72
2018-08-24T08:43:14.242Z,100784.01
2018-08-24T08:45:44.575Z,100788.12
2018-08-24T08:48:16.182Z,100792.81
2018-08-24T08:50:45.893Z,100796.48
2018-08-24T08:53:16.827Z,100801.44
2018-08-24T08:55:47.273Z,100807.88
2018-08-24T08:58:20.386Z,100812.53
2018-08-24T09:00:52.670Z,100812.87
2018-08-24T09:03:23.368Z,100812.59
2018-08-24T09:05:53.377Z,100813.53
2018-08-24T09:08:26.668Z,100816.24
2018-08-24T09:10:56.169Z,100816.41
2018-08-24T09:13:28.756Z,100820.49
2018-08-24T09:15:58.696Z,100822.97
2018-08-24T09:18:33.262Z,100822.92
2018-08-24T09:21:09.077Z,100832.77
2018-08-24T09:23:43.553Z,100826.64
2018-08-24T09:26:19.290Z,100830.25
2018-08-24T09:28:52.295Z,100831.29
2018-08-24T09:31:30.805Z,100830.78
2018-08-24T09:34:02.038Z,100837.61
2018-08-24T09:36:36.052Z,100839.29
2018-08-24T09:39:09.918Z,100835.83
2018-08-24T09:41:41.913Z,100837.80
2018-08-24T09:44:12.909Z,100829.16
2018-08-24T09:46:53.112Z,100829.30
2018-08-24T09:49:30.067Z,100845.91
2018-08-24T09:52:01.020Z,100840.59
2018-08-24T09:54:32.116Z,100838.00
2018-08-24T09:57:02.547Z,100833.83
2018-08-24T09:59:35.161Z,100838.40
2018-08-24T10:02:09.944Z,100831.89
2018-08-24T10:04:46.324Z,100839.08
2018-08-24T10:07:20.608Z,100829.67
2018-08-24T10:09:53.764Z,100830.93
2018-08-24T10:12:36.790Z,100815.25
2018-08-24T10:15:15.509Z,100824.73
2018-08-24T10:17:45.596Z,100826.44
2018-08-24T10:20:19.642Z,100837.64
2018-08-24T10:22:50.245Z,100830.09
2018-08-24T10:25:21.338Z,100831.94
2018-08-24T10:27:54.794Z,100820.82
2018-08-24T10:30:26.657Z,100830.37
2018-08-24T10:32:56.291Z,100833.86
2018-08-24T10:35:26.427Z,100840.05
2018-08-24T10:38:03.793Z,100830.71
2018-08-24T10:40:33.639Z,100792.22
2018-08-24T10:43:05.637Z,100824.84
2018-08-24T10:45:36.979Z,100833.94
2018-08-24T10:48:08.355Z,100827.19
2018-08-24T10:50:38.412Z,100817.59
2018-08-24T10:53:09.532Z,100828.61
2018-08-24T10:55:40.258Z,100827.11
2018-08-24T10:58:10.792Z,100825.25
2018-08-24T11:00:41.657Z,100824.72
2018-08-24T11:03:12.029Z,100826.09
2018-08-24T11:05:43.388Z,100819.53
2018-08-24T11:08:28.112Z,100833.69
2018-08-24T11:10:57.809Z,100833.59
2018-08-24T11:13:27.923Z,100825.22
2018-08-24T11:16:00.484Z,100832.09
2018-08-24T11:18:30.074Z,100836.03
2018-08-24T11:21:00.134Z,100830.33
2018-08-24T11:26:19.836Z,100832.02
2018-08-24T11:28:49.576Z,100840.42
2018-08-24T11:31:32.360Z,100836.09
2018-08-24T11:34:03.034Z,100831.06
2018-08-24T11:36:32.795Z,100825.93
2018-08-24T11:39:03.573Z,100830.73
2018-08-24T11:41:34.563Z,100834.97
2018-08-24T11:44:04.313Z,100830.95
2018-08-24T11:46:34.397Z,100822.99
2018-08-24T11:49:09.136Z,100836.46
2018-08-24T11:51:40.214Z,100826.36
2018-08-24T11:54:12.668Z,100821.31
2018-08-24T11:56:42.274Z,100822.67
2018-08-24T11:59:37.288Z,100821.34
2018-08-24T12:02:14.478Z,100831.85
2018-08-24T12:04:44.547Z,100828.27
2018-08-24T12:07:22.751Z,100835.16
2018-08-24T12:09:52.580Z,100823.69
2018-08-24T12:12:24.170Z,100825.91
2018-08-24T12:14:53.862Z,100823.30
2018-08-24T12:17:28.525Z,100828.91
2018-08-24T12:20:01.492Z,100826.25
2018-08-24T12:22:32.735Z,100835.24
2018-08-24T12:25:02.185Z,100829.17
2018-08-24T12:27:33.753Z,100829.72
2018-08-24T12:30:17.928Z,100830.38
2018-08-24T12:32:54.438Z,100832.44
2018-08-24T12:35:44.127Z,100814.55
2018-08-24T12:38:14.613Z,100831.42
2018-08-24T12:40:46.280Z,100826.52
2018-08-24T12:43:19.113Z,100820.59
2018-08-24T12:45:55.494Z,100822.63
2018-08-24T12:48:26.049Z,100827.33
2018-08-24T12:51:01.512Z,100828.81
2018-08-24T12:53:38.265Z,100835.98
2018-08-24T12:56:13.864Z,100829.55
2018-08-24T12:58:44.803Z,100825.88
2018-08-24T13:01:23.291Z,100825.64
2018-08-24T13:03:57.711Z,100826.80
2018-08-24T13:06:32.320Z,100823.10
2018-08-24T13:09:02.043Z,100819.16
2018-08-24T13:11:32.721Z,100814.34
2018-08-24T13:14:07.831Z,100820.45
2018-08-24T13:16:40.187Z,100803.02
2018-08-24T13:19:11.877Z,100803.34
2018-08-24T13:21:43.629Z,100814.08
2018-08-24T13:24:15.513Z,100803.91
2018-08-24T13:26:44.748Z,100808.61
2018-08-24T13:29:26.995Z,100801.24
2018-08-24T13:31:58.324Z,100805.19
2018-08-24T13:34:31.540Z,100809.74
2018-08-24T13:37:07.512Z,100799.52
2018-08-24T13:39:46.078Z,100791.60
2018-08-24T13:42:48.931Z,100794.33
2018-08-24T13:45:32.565Z,100792.53
2018-08-24T13:48:02.466Z,100800.52
2018-08-24T13:50:32.904Z,100795.00
2018-08-24T13:53:07.277Z,100799.41
2018-08-24T13:55:42.635Z,100796.64
2018-08-24T13:58:14.220Z,100797.77
2018-08-24T14:00:44.239Z,100786.80
2018-08-24T14:03:13.615Z,100709.02
2018-08-24T14:05:44.566Z,100787.06
2018-08-24T14:08:15.706Z,100783.35
2018-08-24T14:10:49.616Z,100791.37
2018-08-24T14:13:19.734Z,100780.34
2018-08-24T14:15:51.588Z,100777.98
2018-08-24T14:34:24.519Z,100770.17
2018-08-24T14:36:54.323Z,100767.77
2018-08-24T14:39:24.040Z,100767.84
2018-08-24T14:41:54.660Z,100765.98
2018-08-24T14:44:25.578Z,100763.28
2018-08-24T14:46:55.367Z,100761.95
2018-08-24T14:49:41.329Z,100760.06
2018-08-24T14:52:12.861Z,100760.58
2018-08-24T14:54:45.202Z,100755.33
2018-08-24T14:57:15.401Z,100752.68
2018-08-24T14:59:47.618Z,100754.66
2018-08-24T15:02:19.557Z,100748.42
2018-08-24T15:04:50.262Z,100746.02
2018-08-24T15:07:26.292Z,100748.75
2018-08-24T15:10:01.214Z,100743.76
2018-08-24T15:12:30.955Z,100740.20
2018-08-24T15:15:05.356Z,100737.63
2018-08-24T15:17:36.628Z,100746.13
2018-08-24T15:20:07.777Z,100750.20
2018-08-24T15:22:38.058Z,100751.50
2018-08-24T15:25:07.941Z,100757.62
2018-08-24T15:27:47.263Z,100761.03
2018-08-24T15:30:18.163Z,100755.97
2018-08-24T15:32:48.829Z,100756.44
2018-08-24T15:35:19.365Z,100759.88
2018-08-24T15:37:48.849Z,100764.01
2018-08-24T15:40:18.322Z,100756.55
2018-08-24T15:42:48.012Z,100765.38
2018-08-24T15:45:20.293Z,100771.02
2018-08-24T15:47:50.630Z,100770.80
2018-08-24T15:50:20.994Z,100777.22
2018-08-24T15:52:51.595Z,100775.25
2018-08-24T15:55:24.656Z,100779.86
2018-08-24T15:57:54.288Z,100773.33
2018-08-24T16:00:26.206Z,100773.64
2018-08-24T16:02:55.661Z,100717.76
2018-08-24T16:05:25.850Z,100769.05
2018-08-24T16:07:56.780Z,100766.66
2018-08-24T16:10:31.363Z,100764.91
2018-08-24T16:13:01.438Z,100766.66
2018-08-24T16:15:30.956Z,100766.21
2018-08-24T16:18:10.867Z,100771.96
2018-08-24T16:20:41.944Z,100769.17
2018-08-24T16:23:12.686Z,100775.00
2018-08-24T16:25:43.196Z,100771.12
2018-08-24T16:28:17.240Z,100774.98
2018-08-24T16:30:52.065Z,100765.82
2018-08-24T16:33:22.873Z,100765.70
2018-08-24T16:35:52.552Z,100761.03
2018-08-24T16:38:23.173Z,100766.74
2018-08-24T16:40:53.095Z,100760.59
2018-08-24T16:43:26.131Z,100751.33
2018-08-24T16:45:58.555Z,100754.33
2018-08-24T16:48:29.711Z,100757.27
2018-08-24T16:51:01.416Z,100761.36
2018-08-24T16:53:31.135Z,100764.06
2018-08-24T16:56:03.090Z,100761.65
2018-08-24T16:58:32.997Z,100759.55
2018-08-24T17:01:04.949Z,100749.95
2018-08-24T17:03:35.087Z,100751.63
2018-08-24T17:06:06.274Z,100749.11
2018-08-24T17:08:37.598Z,100746.00
2018-08-24T17:11:09.157Z,100744.25
2018-08-24T17:13:42.610Z,100742.25
2018-08-24T17:16:16.277Z,100743.41
2018-08-24T17:18:47.372Z,100749.23
2018-08-24T17:21:17.768Z,100741.41
2018-08-24T17:23:50.264Z,100533.87
2018-08-24T17:26:22.998Z,100740.58
2018-08-24T17:28:54.294Z,100738.41
2018-08-24T17:31:26.566Z,100736.53
2018-08-24T17:34:07.630Z,100736.53
2018-08-24T17:36:43.246Z,100743.80
2018-08-24T17:39:32.629Z,100741.95
2018-08-24T17:42:03.419Z,100736.71
2018-08-24T17:44:33.658Z,100746.70
2018-08-24T17:47:04.111Z,100743.57
2018-08-24T17:49:34.419Z,100737.12
2018-08-24T17:52:04.487Z,100734.74
2018-08-24T17:54:38.309Z,100739.34
2018-08-24T17:57:07.774Z,100729.94
2018-08-24T17:59:51.821Z,100739.02
2018-08-24T18:02:23.992Z,100733.16
2018-08-24T18:05:04.820Z,100739.77
2018-08-24T18:07:39.212Z,100747.36
2018-08-24T18:10:09.748Z,100741.09
2018-08-24T18:12:41.285Z,100736.11
2018-08-24T18:15:22.795Z,100735.05
2018-08-24T18:17:59.984Z,100733.77
2018-08-24T18:20:40.729Z,100740.56
2018-08-24T18:23:15.164Z,100739.84
2018-08-24T18:25:46.720Z,100737.44
2018-08-24T18:28:18.655Z,100737.99
2018-08-24T18:30:52.227Z,100745.89
2018-08-24T18:33:23.688Z,100740.90
2018-08-24T18:35:53.570Z,100737.02
2018-08-24T18:38:24.501Z,100733.58
2018-08-24T18:40:57.060Z,100733.38
2018-08-24T18:43:31.788Z,100738.06
2018-08-24T18:46:03.503Z,100742.00
2018-08-24T18:48:39.849Z,100738.17
2018-08-24T18:51:09.816Z,100740.98
2018-08-24T18:53:43.876Z,100741.52
2018-08-24T18:56:13.457Z,100746.71
2018-08-24T18:58:43.066Z,100747.14
2018-08-24T19:01:13.229Z,100747.12
2018-08-24T19:03:44.122Z,100748.80
2018-08-24T19:06:19.463Z,100747.55
2018-08-24T19:08:52.565Z,100747.78
2018-08-24T19:11:29.722Z,100745.67
2018-08-24T19:14:02.486Z,100756.63
2018-08-24T19:16:35.806Z,100753.92
2018-08-24T19:19:10.958Z,100753.20
2018-08-24T19:21:42.796Z,100759.34
2018-08-24T19:24:13.408Z,100763.84
2018-08-24T19:26:54.071Z,100753.80
2018-08-24T19:29:30.937Z,100757.66
2018-08-24T19:32:00.655Z,100758.51
2018-08-24T19:34:33.225Z,100760.37
2018-08-24T19:43:24.105Z,100749.83
2018-08-24T19:45:55.110Z,100750.98
2018-08-24T19:48:34.814Z,100753.82
2018-08-24T19:51:05.311Z,100744.43
2018-08-24T19:53:37.038Z,100750.33
2018-08-24T19:56:07.794Z,100748.87
2018-08-24T19:58:42.096Z,100747.81
2018-08-24T20:01:14.060Z,100743.75
2018-08-24T20:03:43.677Z,100736.69
2018-08-24T20:06:19.791Z,100740.59
2018-08-24T20:08:58.022Z,100733.47
2018-08-24T20:11:28.515Z,100726.58
2018-08-24T20:13:57.904Z,100733.47
2018-08-24T20:16:34.625Z,100729.75
2018-08-24T20:19:07.770Z,100723.98
2018-08-24T20:21:42.885Z,100723.23
2018-08-24T20:24:13.043Z,100723.35
2018-08-24T20:26:47.830Z,100716.49
2018-08-24T20:29:20.466Z,100710.42
2018-08-24T20:31:52.399Z,100712.33
2018-08-24T20:34:27.991Z,100713.42
2018-08-24T20:37:05.074Z,100708.91
2018-08-24T20:39:37.572Z,100713.41
2018-08-24T20:42:08.671Z,100710.33
2018-08-24T20:44:40.037Z,100711.39
2018-08-24T20:47:12.925Z,100701.60
2018-08-24T20:49:43.418Z,100699.22
2018-08-24T20:52:14.842Z,100703.12
2018-08-24T20:54:45.475Z,100694.17
2018-08-24T20:57:16.341Z,100698.70
2018-08-24T20:59:46.572Z,100695.12
2018-08-24T21:02:20.042Z,100690.64
2018-08-24T21:04:49.567Z,100688.81
2018-08-24T21:07:20.186Z,100685.79
2018-08-24T21:09:54.704Z,100681.47
2018-08-24T21:12:25.458Z,100685.70
2018-08-24T21:14:55.609Z,100678.66
2018-08-24T21:17:29.351Z,100676.00
2018-08-24T21:19:59.984Z,100676.99
2018-08-24T21:22:30.679Z,100683.88
2018-08-24T21:25:02.080Z,100678.38
2018-08-24T21:27:35.567Z,100675.13
2018-08-24T21:33:00.100Z,100679.58
2018-08-24T21:35:29.893Z,100676.64
2018-08-24T21:38:01.792Z,100681.36
2018-08-24T21:40:34.554Z,100692.52
2018-08-24T21:43:07.300Z,100693.58
2018-08-24T21:45:39.057Z,100685.77
2018-08-24T21:48:09.986Z,100681.94
2018-08-24T21:50:39.847Z,100679.49
2018-08-24T21:53:10.957Z,100682.95
2018-08-24T21:55:42.359Z,100677.31
2018-08-24T21:58:11.820Z,100686.66
2018-08-24T22:00:43.075Z,100688.77
2018-08-24T22:03:13.634Z,100692.32
2018-08-24T22:05:46.744Z,100688.59
2018-08-24T22:08:16.617Z,100687.36
2018-08-24T22:10:45.947Z,100678.38
2018-08-24T22:13:16.401Z,100679.91
2018-08-24T22:15:47.835Z,100686.82
2018-08-24T22:18:17.835Z,100689.05
2018-08-24T22:20:49.929Z,100683.58
2018-08-24T22:23:20.775Z,100685.00
2018-08-24T22:25:51.253Z,100690.53
2018-08-24T22:28:20.604Z,100692.24
2018-08-24T22:30:50.708Z,100691.36
2018-08-24T22:33:21.612Z,100690.91
2018-08-24T22:35:51.322Z,100695.88
2018-08-24T22:38:20.876Z,100696.31
2018-08-24T22:40:50.323Z,100693.18
2018-08-24T22:43:26.432Z,100693.25
2018-08-24T22:45:56.804Z,100688.17
2018-08-24T22:48:28.242Z,100692.52
2018-08-24T22:50:59.913Z,100687.92
2018-08-24T22:53:30.485Z,100689.05
2018-08-24T22:56:00.187Z,100686.43
2018-08-24T22:58:29.459Z,100681.43
2018-08-24T23:01:03.243Z,100684.75
2018-08-24T23:03:34.456Z,100675.45
2018-08-24T23:06:05.089Z,100673.27
2018-08-24T23:08:38.575Z,100670.82
2018-08-24T23:11:09.099Z,100674.80
2018-08-24T23:13:39.644Z,100671.27
2018-08-24T23:16:11.171Z,100666.84
2018-08-24T23:18:40.783Z,100666.63
2018-08-24T23:21:11.765Z,100663.30
2018-08-24T23:23:44.345Z,100660.79
2018-08-24T23:26:15.139Z,100656.16
2018-08-24T23:28:44.927Z,100655.20
2018-08-24T23:31:14.514Z,100648.97
2018-08-24T23:33:44.565Z,100636.76
2018-08-24T23:36:15.187Z,100633.95
2018-08-24T23:38:44.517Z,100636.69
2018-08-24T23:41:15.843Z,100626.87
2018-08-24T23:43:46.562Z,100624.28
2018-08-24T23:46:16.128Z,100619.62
2018-08-24T23:48:45.724Z,100614.66
2018-08-24T23:51:15.288Z,100616.78
2018-08-24T23:53:45.942Z,100611.05
2018-08-24T23:56:15.690Z,100605.11
2018-08-24T23:58:45.767Z,100604.93
